sensor_id;sensor_type;location;lat;lon;timestamp;P1;durP1;ratioP1;P2;durP2;ratioP2
66886;SDS011;67239;51.680;5.976;2023-06-10T00:00:01;5.20;;;4.43;;
66886;SDS011;67239;51.680;5.976;2023-06-10T00:02:56;6.95;;;4.88;;
66886;SDS011;67239;51.680;5.976;2023-06-10T00:05:42;6.57;;;4.75;;
66886;SDS011;67239;51.680;5.976;2023-06-10T00:08:27;5.68;;;4.63;;
66886;SDS011;67239;51.680;5.976;2023-06-10T00:11:16;6.90;;;5.05;;
66886;SDS011;67239;51.680;5.976;2023-06-10T00:14:01;5.20;;;4.70;;
66886;SDS011;67239;51.680;5.976;2023-06-10T00:16:48;8.95;;;4.85;;
66886;SDS011;67239;51.680;5.976;2023-06-10T00:22:28;20.80;;;5.13;;
66886;SDS011;67239;51.680;5.976;2023-06-10T00:25:15;6.63;;;5.20;;
66886;SDS011;67239;51.680;5.976;2023-06-10T00:28:00;5.88;;;5.10;;
66886;SDS011;67239;51.680;5.976;2023-06-10T00:30:47;8.93;;;5.18;;
66886;SDS011;67239;51.680;5.976;2023-06-10T00:33:32;6.03;;;4.65;;
66886;SDS011;67239;51.680;5.976;2023-06-10T00:36:18;7.03;;;5.40;;
66886;SDS011;67239;51.680;5.976;2023-06-10T00:39:04;5.88;;;5.13;;
66886;SDS011;67239;51.680;5.976;2023-06-10T00:41:50;6.93;;;5.13;;
66886;SDS011;67239;51.680;5.976;2023-06-10T00:44:35;7.93;;;5.55;;
66886;SDS011;67239;51.680;5.976;2023-06-10T00:47:20;8.45;;;5.25;;
66886;SDS011;67239;51.680;5.976;2023-06-10T00:50:06;7.43;;;5.07;;
66886;SDS011;67239;51.680;5.976;2023-06-10T00:52:53;10.10;;;5.82;;
66886;SDS011;67239;51.680;5.976;2023-06-10T00:55:40;8.27;;;5.70;;
66886;SDS011;67239;51.680;5.976;2023-06-10T00:58:26;7.65;;;5.60;;
66886;SDS011;67239;51.680;5.976;2023-06-10T01:01:12;8.65;;;5.80;;
66886;SDS011;67239;51.680;5.976;2023-06-10T01:03:58;6.57;;;5.57;;
66886;SDS011;67239;51.680;5.976;2023-06-10T01:10:09;7.13;;;5.53;;
66886;SDS011;67239;51.680;5.976;2023-06-10T01:13:07;10.93;;;5.78;;
66886;SDS011;67239;51.680;5.976;2023-06-10T01:15:56;9.23;;;5.13;;
66886;SDS011;67239;51.680;5.976;2023-06-10T01:18:45;7.05;;;5.57;;
66886;SDS011;67239;51.680;5.976;2023-06-10T01:21:31;7.40;;;5.82;;
66886;SDS011;67239;51.680;5.976;2023-06-10T01:24:19;6.70;;;6.00;;
66886;SDS011;67239;51.680;5.976;2023-06-10T01:27:05;6.28;;;5.47;;
66886;SDS011;67239;51.680;5.976;2023-06-10T01:29:59;9.93;;;5.80;;
66886;SDS011;67239;51.680;5.976;2023-06-10T01:32:51;8.05;;;5.47;;
66886;SDS011;67239;51.680;5.976;2023-06-10T01:35:39;7.00;;;5.60;;
66886;SDS011;67239;51.680;5.976;2023-06-10T01:38:28;8.27;;;5.88;;
66886;SDS011;67239;51.680;5.976;2023-06-10T01:41:21;8.23;;;5.65;;
66886;SDS011;67239;51.680;5.976;2023-06-10T01:44:08;9.10;;;6.00;;
66886;SDS011;67239;51.680;5.976;2023-06-10T01:46:54;7.90;;;5.85;;
66886;SDS011;67239;51.680;5.976;2023-06-10T01:49:40;10.15;;;6.13;;
66886;SDS011;67239;51.680;5.976;2023-06-10T01:52:25;8.48;;;6.40;;
66886;SDS011;67239;51.680;5.976;2023-06-10T01:55:11;9.30;;;6.28;;
66886;SDS011;67239;51.680;5.976;2023-06-10T01:57:57;8.77;;;5.80;;
66886;SDS011;67239;51.680;5.976;2023-06-10T02:00:43;7.93;;;5.65;;
66886;SDS011;67239;51.680;5.976;2023-06-10T02:03:28;6.97;;;5.70;;
66886;SDS011;67239;51.680;5.976;2023-06-10T02:06:13;8.50;;;6.07;;
66886;SDS011;67239;51.680;5.976;2023-06-10T02:08:59;10.70;;;6.30;;
66886;SDS011;67239;51.680;5.976;2023-06-10T02:11:46;7.65;;;5.70;;
66886;SDS011;67239;51.680;5.976;2023-06-10T02:14:32;8.02;;;6.05;;
66886;SDS011;67239;51.680;5.976;2023-06-10T02:17:18;7.40;;;6.38;;
66886;SDS011;67239;51.680;5.976;2023-06-10T02:20:04;8.85;;;5.70;;
66886;SDS011;67239;51.680;5.976;2023-06-10T02:22:52;6.70;;;6.00;;
66886;SDS011;67239;51.680;5.976;2023-06-10T02:25:38;6.75;;;6.07;;
66886;SDS011;67239;51.680;5.976;2023-06-10T02:28:23;8.13;;;6.20;;
66886;SDS011;67239;51.680;5.976;2023-06-10T02:31:08;9.35;;;5.97;;
66886;SDS011;67239;51.680;5.976;2023-06-10T02:33:55;10.00;;;5.90;;
66886;SDS011;67239;51.680;5.976;2023-06-10T02:36:41;8.02;;;5.57;;
66886;SDS011;67239;51.680;5.976;2023-06-10T02:39:27;7.10;;;6.00;;
66886;SDS011;67239;51.680;5.976;2023-06-10T02:42:13;8.48;;;5.90;;
66886;SDS011;67239;51.680;5.976;2023-06-10T02:44:58;7.75;;;5.65;;
66886;SDS011;67239;51.680;5.976;2023-06-10T02:47:52;6.85;;;6.03;;
66886;SDS011;67239;51.680;5.976;2023-06-10T02:50:37;10.40;;;6.55;;
66886;SDS011;67239;51.680;5.976;2023-06-10T02:53:35;8.20;;;5.70;;
66886;SDS011;67239;51.680;5.976;2023-06-10T02:56:25;8.85;;;6.28;;
66886;SDS011;67239;51.680;5.976;2023-06-10T02:59:11;10.27;;;6.50;;
66886;SDS011;67239;51.680;5.976;2023-06-10T03:01:57;7.18;;;6.47;;
66886;SDS011;67239;51.680;5.976;2023-06-10T03:04:43;7.15;;;6.00;;
66886;SDS011;67239;51.680;5.976;2023-06-10T03:07:33;9.93;;;6.30;;
66886;SDS011;67239;51.680;5.976;2023-06-10T03:10:20;8.60;;;6.00;;
66886;SDS011;67239;51.680;5.976;2023-06-10T03:13:05;7.22;;;5.75;;
66886;SDS011;67239;51.680;5.976;2023-06-10T03:15:51;6.90;;;5.95;;
66886;SDS011;67239;51.680;5.976;2023-06-10T03:18:39;6.43;;;5.55;;
66886;SDS011;67239;51.680;5.976;2023-06-10T03:21:26;8.18;;;5.70;;
66886;SDS011;67239;51.680;5.976;2023-06-10T03:24:14;8.55;;;5.78;;
66886;SDS011;67239;51.680;5.976;2023-06-10T03:27:01;6.93;;;5.70;;
66886;SDS011;67239;51.680;5.976;2023-06-10T03:29:50;8.43;;;6.13;;
66886;SDS011;67239;51.680;5.976;2023-06-10T03:32:36;8.18;;;6.18;;
66886;SDS011;67239;51.680;5.976;2023-06-10T03:35:23;9.50;;;5.97;;
66886;SDS011;67239;51.680;5.976;2023-06-10T03:38:09;8.32;;;6.20;;
66886;SDS011;67239;51.680;5.976;2023-06-10T03:40:54;9.40;;;6.28;;
66886;SDS011;67239;51.680;5.976;2023-06-10T03:43:40;8.05;;;5.90;;
66886;SDS011;67239;51.680;5.976;2023-06-10T03:46:26;8.70;;;5.60;;
66886;SDS011;67239;51.680;5.976;2023-06-10T03:49:11;6.97;;;5.78;;
66886;SDS011;67239;51.680;5.976;2023-06-10T03:51:58;10.57;;;6.13;;
66886;SDS011;67239;51.680;5.976;2023-06-10T03:54:44;6.97;;;5.82;;
66886;SDS011;67239;51.680;5.976;2023-06-10T03:57:29;8.13;;;5.88;;
66886;SDS011;67239;51.680;5.976;2023-06-10T04:00:15;8.27;;;6.05;;
66886;SDS011;67239;51.680;5.976;2023-06-10T04:03:02;6.63;;;5.63;;
66886;SDS011;67239;51.680;5.976;2023-06-10T04:05:53;11.15;;;6.47;;
66886;SDS011;67239;51.680;5.976;2023-06-10T04:08:38;6.63;;;5.50;;
66886;SDS011;67239;51.680;5.976;2023-06-10T04:11:24;8.38;;;5.75;;
66886;SDS011;67239;51.680;5.976;2023-06-10T04:14:10;6.95;;;5.60;;
66886;SDS011;67239;51.680;5.976;2023-06-10T04:16:57;8.23;;;5.47;;
66886;SDS011;67239;51.680;5.976;2023-06-10T04:19:42;7.43;;;5.68;;
66886;SDS011;67239;51.680;5.976;2023-06-10T04:22:28;6.82;;;5.35;;
66886;SDS011;67239;51.680;5.976;2023-06-10T04:25:13;6.57;;;5.07;;
66886;SDS011;67239;51.680;5.976;2023-06-10T04:28:00;9.50;;;5.72;;
66886;SDS011;67239;51.680;5.976;2023-06-10T04:30:45;9.57;;;5.90;;
66886;SDS011;67239;51.680;5.976;2023-06-10T04:33:32;9.07;;;5.60;;
66886;SDS011;67239;51.680;5.976;2023-06-10T04:36:20;8.52;;;5.80;;
66886;SDS011;67239;51.680;5.976;2023-06-10T04:39:05;9.20;;;5.53;;
66886;SDS011;67239;51.680;5.976;2023-06-10T04:41:53;7.40;;;5.22;;
66886;SDS011;67239;51.680;5.976;2023-06-10T04:44:38;11.15;;;5.47;;
66886;SDS011;67239;51.680;5.976;2023-06-10T04:47:25;7.50;;;5.20;;
66886;SDS011;67239;51.680;5.976;2023-06-10T04:50:11;9.07;;;5.40;;
66886;SDS011;67239;51.680;5.976;2023-06-10T04:52:57;9.18;;;5.88;;
66886;SDS011;67239;51.680;5.976;2023-06-10T04:55:43;8.27;;;5.78;;
66886;SDS011;67239;51.680;5.976;2023-06-10T04:58:29;6.90;;;5.30;;
66886;SDS011;67239;51.680;5.976;2023-06-10T05:01:14;6.68;;;5.50;;
66886;SDS011;67239;51.680;5.976;2023-06-10T05:03:59;8.80;;;5.50;;
66886;SDS011;67239;51.680;5.976;2023-06-10T05:06:45;10.75;;;5.55;;
66886;SDS011;67239;51.680;5.976;2023-06-10T05:09:30;8.82;;;5.38;;
66886;SDS011;67239;51.680;5.976;2023-06-10T05:12:15;11.75;;;6.07;;
66886;SDS011;67239;51.680;5.976;2023-06-10T05:15:01;11.38;;;5.22;;
66886;SDS011;67239;51.680;5.976;2023-06-10T05:17:46;10.00;;;5.43;;
66886;SDS011;67239;51.680;5.976;2023-06-10T05:20:32;8.48;;;5.40;;
66886;SDS011;67239;51.680;5.976;2023-06-10T05:23:17;9.20;;;5.22;;
66886;SDS011;67239;51.680;5.976;2023-06-10T05:26:02;7.60;;;5.10;;
66886;SDS011;67239;51.680;5.976;2023-06-10T05:28:47;7.07;;;4.97;;
66886;SDS011;67239;51.680;5.976;2023-06-10T05:31:33;11.80;;;5.07;;
66886;SDS011;67239;51.680;5.976;2023-06-10T05:34:18;8.20;;;5.32;;
66886;SDS011;67239;51.680;5.976;2023-06-10T05:37:03;10.40;;;5.13;;
66886;SDS011;67239;51.680;5.976;2023-06-10T05:39:50;6.20;;;4.78;;
66886;SDS011;67239;51.680;5.976;2023-06-10T05:42:35;8.45;;;4.88;;
66886;SDS011;67239;51.680;5.976;2023-06-10T05:45:20;6.20;;;4.60;;
66886;SDS011;67239;51.680;5.976;2023-06-10T05:48:05;6.60;;;4.70;;
66886;SDS011;67239;51.680;5.976;2023-06-10T05:50:51;11.95;;;4.80;;
66886;SDS011;67239;51.680;5.976;2023-06-10T05:53:36;6.00;;;4.93;;
66886;SDS011;67239;51.680;5.976;2023-06-10T05:56:21;9.27;;;4.70;;
66886;SDS011;67239;51.680;5.976;2023-06-10T05:59:07;8.27;;;4.50;;
66886;SDS011;67239;51.680;5.976;2023-06-10T06:01:52;7.90;;;4.55;;
66886;SDS011;67239;51.680;5.976;2023-06-10T06:04:37;8.32;;;4.68;;
66886;SDS011;67239;51.680;5.976;2023-06-10T06:07:23;5.22;;;4.25;;
66886;SDS011;67239;51.680;5.976;2023-06-10T06:10:08;7.03;;;4.70;;
66886;SDS011;67239;51.680;5.976;2023-06-10T06:12:54;13.48;;;4.35;;
66886;SDS011;67239;51.680;5.976;2023-06-10T06:15:39;9.05;;;4.60;;
66886;SDS011;67239;51.680;5.976;2023-06-10T06:18:24;6.55;;;4.50;;
66886;SDS011;67239;51.680;5.976;2023-06-10T06:21:10;6.82;;;4.50;;
66886;SDS011;67239;51.680;5.976;2023-06-10T06:23:55;6.63;;;4.53;;
66886;SDS011;67239;51.680;5.976;2023-06-10T06:26:40;9.05;;;4.70;;
66886;SDS011;67239;51.680;5.976;2023-06-10T06:29:25;8.57;;;4.70;;
66886;SDS011;67239;51.680;5.976;2023-06-10T06:32:11;8.80;;;4.93;;
66886;SDS011;67239;51.680;5.976;2023-06-10T06:34:57;8.32;;;4.60;;
66886;SDS011;67239;51.680;5.976;2023-06-10T06:37:42;6.25;;;4.47;;
66886;SDS011;67239;51.680;5.976;2023-06-10T06:40:43;7.78;;;4.85;;
66886;SDS011;67239;51.680;5.976;2023-06-10T06:43:28;6.70;;;4.85;;
66886;SDS011;67239;51.680;5.976;2023-06-10T06:46:21;7.97;;;4.53;;
66886;SDS011;67239;51.680;5.976;2023-06-10T06:49:07;8.32;;;4.20;;
66886;SDS011;67239;51.680;5.976;2023-06-10T06:51:52;8.32;;;4.85;;
66886;SDS011;67239;51.680;5.976;2023-06-10T06:54:37;6.43;;;4.97;;
66886;SDS011;67239;51.680;5.976;2023-06-10T06:57:23;7.28;;;4.60;;
66886;SDS011;67239;51.680;5.976;2023-06-10T07:00:08;6.80;;;4.40;;
66886;SDS011;67239;51.680;5.976;2023-06-10T07:02:54;9.43;;;4.57;;
66886;SDS011;67239;51.680;5.976;2023-06-10T07:05:40;8.77;;;4.80;;
66886;SDS011;67239;51.680;5.976;2023-06-10T07:08:25;5.65;;;4.13;;
66886;SDS011;67239;51.680;5.976;2023-06-10T07:11:11;7.38;;;4.82;;
66886;SDS011;67239;51.680;5.976;2023-06-10T07:13:56;8.13;;;4.30;;
66886;SDS011;67239;51.680;5.976;2023-06-10T07:16:41;9.88;;;4.15;;
66886;SDS011;67239;51.680;5.976;2023-06-10T07:19:27;6.80;;;4.40;;
66886;SDS011;67239;51.680;5.976;2023-06-10T07:22:13;9.13;;;4.10;;
66886;SDS011;67239;51.680;5.976;2023-06-10T07:24:58;6.57;;;3.85;;
66886;SDS011;67239;51.680;5.976;2023-06-10T07:27:44;4.93;;;3.88;;
66886;SDS011;67239;51.680;5.976;2023-06-10T07:30:29;8.60;;;4.32;;
66886;SDS011;67239;51.680;5.976;2023-06-10T07:33:14;10.73;;;4.40;;
66886;SDS011;67239;51.680;5.976;2023-06-10T07:36:00;7.78;;;4.75;;
66886;SDS011;67239;51.680;5.976;2023-06-10T07:38:45;7.32;;;4.32;;
66886;SDS011;67239;51.680;5.976;2023-06-10T07:41:30;6.22;;;4.25;;
66886;SDS011;67239;51.680;5.976;2023-06-10T07:44:16;8.80;;;4.40;;
66886;SDS011;67239;51.680;5.976;2023-06-10T07:47:01;8.45;;;4.18;;
66886;SDS011;67239;51.680;5.976;2023-06-10T07:49:46;8.23;;;4.60;;
66886;SDS011;67239;51.680;5.976;2023-06-10T07:52:32;7.53;;;3.83;;
66886;SDS011;67239;51.680;5.976;2023-06-10T07:55:17;7.53;;;4.13;;
66886;SDS011;67239;51.680;5.976;2023-06-10T07:58:02;7.15;;;3.88;;
66886;SDS011;67239;51.680;5.976;2023-06-10T08:00:48;6.68;;;4.13;;
66886;SDS011;67239;51.680;5.976;2023-06-10T08:03:33;7.28;;;4.30;;
66886;SDS011;67239;51.680;5.976;2023-06-10T08:06:19;7.00;;;4.00;;
66886;SDS011;67239;51.680;5.976;2023-06-10T08:09:04;6.93;;;4.22;;
66886;SDS011;67239;51.680;5.976;2023-06-10T08:11:49;8.30;;;4.40;;
66886;SDS011;67239;51.680;5.976;2023-06-10T08:14:35;7.18;;;3.75;;
66886;SDS011;67239;51.680;5.976;2023-06-10T08:17:22;5.30;;;3.70;;
66886;SDS011;67239;51.680;5.976;2023-06-10T08:20:07;7.22;;;4.05;;
66886;SDS011;67239;51.680;5.976;2023-06-10T08:22:53;6.75;;;3.90;;
66886;SDS011;67239;51.680;5.976;2023-06-10T08:25:38;7.40;;;4.38;;
66886;SDS011;67239;51.680;5.976;2023-06-10T08:28:24;4.97;;;3.80;;
66886;SDS011;67239;51.680;5.976;2023-06-10T08:31:10;7.68;;;3.53;;
66886;SDS011;67239;51.680;5.976;2023-06-10T08:33:55;8.73;;;3.90;;
66886;SDS011;67239;51.680;5.976;2023-06-10T08:36:40;8.35;;;3.92;;
66886;SDS011;67239;51.680;5.976;2023-06-10T08:39:26;8.32;;;4.05;;
66886;SDS011;67239;51.680;5.976;2023-06-10T08:45:12;7.93;;;3.63;;
66886;SDS011;67239;51.680;5.976;2023-06-10T08:48:05;6.32;;;3.78;;
66886;SDS011;67239;51.680;5.976;2023-06-10T08:50:52;6.32;;;3.97;;
66886;SDS011;67239;51.680;5.976;2023-06-10T08:53:44;13.15;;;3.80;;
66886;SDS011;67239;51.680;5.976;2023-06-10T08:56:40;6.38;;;3.38;;
66886;SDS011;67239;51.680;5.976;2023-06-10T08:59:27;6.90;;;3.90;;
66886;SDS011;67239;51.680;5.976;2023-06-10T09:02:14;5.20;;;3.75;;
66886;SDS011;67239;51.680;5.976;2023-06-10T09:05:00;6.43;;;3.42;;
66886;SDS011;67239;51.680;5.976;2023-06-10T09:07:47;6.43;;;3.67;;
66886;SDS011;67239;51.680;5.976;2023-06-10T09:10:33;6.35;;;3.53;;
66886;SDS011;67239;51.680;5.976;2023-06-10T09:13:19;8.10;;;4.00;;
66886;SDS011;67239;51.680;5.976;2023-06-10T09:16:04;6.57;;;3.70;;
66886;SDS011;67239;51.680;5.976;2023-06-10T09:18:50;5.63;;;3.63;;
66886;SDS011;67239;51.680;5.976;2023-06-10T09:21:39;5.55;;;3.47;;
66886;SDS011;67239;51.680;5.976;2023-06-10T09:24:25;6.05;;;3.80;;
66886;SDS011;67239;51.680;5.976;2023-06-10T09:27:13;7.22;;;3.83;;
66886;SDS011;67239;51.680;5.976;2023-06-10T09:29:58;5.28;;;3.70;;
66886;SDS011;67239;51.680;5.976;2023-06-10T09:32:43;6.63;;;3.65;;
66886;SDS011;67239;51.680;5.976;2023-06-10T09:35:30;6.93;;;4.13;;
66886;SDS011;67239;51.680;5.976;2023-06-10T09:38:19;6.95;;;3.88;;
66886;SDS011;67239;51.680;5.976;2023-06-10T09:41:06;4.07;;;3.38;;
66886;SDS011;67239;51.680;5.976;2023-06-10T09:43:52;5.10;;;3.65;;
66886;SDS011;67239;51.680;5.976;2023-06-10T09:46:37;5.32;;;3.45;;
66886;SDS011;67239;51.680;5.976;2023-06-10T09:49:22;5.70;;;3.22;;
66886;SDS011;67239;51.680;5.976;2023-06-10T09:52:08;5.97;;;3.60;;
66886;SDS011;67239;51.680;5.976;2023-06-10T09:54:53;6.95;;;3.50;;
66886;SDS011;67239;51.680;5.976;2023-06-10T09:57:45;8.60;;;3.58;;
66886;SDS011;67239;51.680;5.976;2023-06-10T10:00:36;4.57;;;3.20;;
66886;SDS011;67239;51.680;5.976;2023-06-10T10:03:22;8.18;;;3.70;;
66886;SDS011;67239;51.680;5.976;2023-06-10T10:06:08;5.68;;;3.60;;
66886;SDS011;67239;51.680;5.976;2023-06-10T10:08:54;8.88;;;3.42;;
66886;SDS011;67239;51.680;5.976;2023-06-10T10:11:39;7.60;;;3.45;;
66886;SDS011;67239;51.680;5.976;2023-06-10T10:14:27;6.13;;;3.60;;
66886;SDS011;67239;51.680;5.976;2023-06-10T10:17:17;4.20;;;3.20;;
66886;SDS011;67239;51.680;5.976;2023-06-10T10:20:06;7.82;;;3.33;;
66886;SDS011;67239;51.680;5.976;2023-06-10T10:22:57;5.93;;;3.38;;
66886;SDS011;67239;51.680;5.976;2023-06-10T10:25:43;6.07;;;3.53;;
66886;SDS011;67239;51.680;5.976;2023-06-10T10:28:40;6.55;;;3.80;;
66886;SDS011;67239;51.680;5.976;2023-06-10T10:31:33;7.70;;;3.33;;
66886;SDS011;67239;51.680;5.976;2023-06-10T10:34:24;7.05;;;3.40;;
66886;SDS011;67239;51.680;5.976;2023-06-10T10:37:17;7.40;;;3.60;;
66886;SDS011;67239;51.680;5.976;2023-06-10T10:40:03;7.45;;;3.30;;
66886;SDS011;67239;51.680;5.976;2023-06-10T10:42:50;7.68;;;3.90;;
66886;SDS011;67239;51.680;5.976;2023-06-10T10:45:37;4.40;;;3.35;;
66886;SDS011;67239;51.680;5.976;2023-06-10T10:48:22;7.40;;;3.53;;
66886;SDS011;67239;51.680;5.976;2023-06-10T10:51:09;4.97;;;3.50;;
66886;SDS011;67239;51.680;5.976;2023-06-10T10:54:14;5.15;;;3.35;;
66886;SDS011;67239;51.680;5.976;2023-06-10T10:59:56;5.32;;;3.47;;
66886;SDS011;67239;51.680;5.976;2023-06-10T11:02:50;6.20;;;3.80;;
66886;SDS011;67239;51.680;5.976;2023-06-10T11:05:48;5.50;;;3.50;;
66886;SDS011;67239;51.680;5.976;2023-06-10T11:11:24;4.30;;;3.42;;
66886;SDS011;67239;51.680;5.976;2023-06-10T11:14:12;4.38;;;3.22;;
66886;SDS011;67239;51.680;5.976;2023-06-10T11:16:57;4.68;;;3.15;;
66886;SDS011;67239;51.680;5.976;2023-06-10T11:19:44;6.35;;;3.47;;
66886;SDS011;67239;51.680;5.976;2023-06-10T11:22:31;5.22;;;3.10;;
66886;SDS011;67239;51.680;5.976;2023-06-10T11:25:16;5.78;;;3.70;;
66886;SDS011;67239;51.680;5.976;2023-06-10T11:28:02;5.68;;;3.47;;
66886;SDS011;67239;51.680;5.976;2023-06-10T11:30:47;4.95;;;3.47;;
66886;SDS011;67239;51.680;5.976;2023-06-10T11:33:43;5.07;;;3.28;;
66886;SDS011;67239;51.680;5.976;2023-06-10T11:36:30;5.82;;;3.45;;
66886;SDS011;67239;51.680;5.976;2023-06-10T11:39:16;7.38;;;3.20;;
66886;SDS011;67239;51.680;5.976;2023-06-10T11:42:06;7.10;;;3.20;;
66886;SDS011;67239;51.680;5.976;2023-06-10T11:44:53;6.07;;;3.40;;
66886;SDS011;67239;51.680;5.976;2023-06-10T11:47:39;4.32;;;3.45;;
66886;SDS011;67239;51.680;5.976;2023-06-10T11:50:31;5.03;;;3.42;;
66886;SDS011;67239;51.680;5.976;2023-06-10T11:53:17;4.78;;;3.30;;
66886;SDS011;67239;51.680;5.976;2023-06-10T11:56:05;4.57;;;3.28;;
66886;SDS011;67239;51.680;5.976;2023-06-10T12:01:49;4.40;;;3.15;;
66886;SDS011;67239;51.680;5.976;2023-06-10T12:04:34;5.18;;;3.50;;
66886;SDS011;67239;51.680;5.976;2023-06-10T12:07:20;6.43;;;3.45;;
66886;SDS011;67239;51.680;5.976;2023-06-10T12:10:07;3.42;;;3.13;;
66886;SDS011;67239;51.680;5.976;2023-06-10T12:13:11;4.40;;;3.13;;
66886;SDS011;67239;51.680;5.976;2023-06-10T12:16:05;4.45;;;3.30;;
66886;SDS011;67239;51.680;5.976;2023-06-10T12:19:00;5.18;;;3.13;;
66886;SDS011;67239;51.680;5.976;2023-06-10T12:21:48;5.82;;;3.67;;
66886;SDS011;67239;51.680;5.976;2023-06-10T12:24:42;3.92;;;3.10;;
66886;SDS011;67239;51.680;5.976;2023-06-10T12:27:30;8.43;;;3.35;;
66886;SDS011;67239;51.680;5.976;2023-06-10T12:30:20;4.47;;;2.85;;
66886;SDS011;67239;51.680;5.976;2023-06-10T12:33:18;5.63;;;3.63;;
66886;SDS011;67239;51.680;5.976;2023-06-10T12:36:06;7.80;;;3.22;;
66886;SDS011;67239;51.680;5.976;2023-06-10T12:39:03;5.45;;;3.63;;
66886;SDS011;67239;51.680;5.976;2023-06-10T12:41:49;3.72;;;3.08;;
66886;SDS011;67239;51.680;5.976;2023-06-10T12:44:40;4.47;;;3.42;;
66886;SDS011;67239;51.680;5.976;2023-06-10T12:47:33;3.88;;;3.22;;
66886;SDS011;67239;51.680;5.976;2023-06-10T12:50:21;5.22;;;3.08;;
66886;SDS011;67239;51.680;5.976;2023-06-10T12:53:07;6.45;;;3.42;;
66886;SDS011;67239;51.680;5.976;2023-06-10T12:55:54;5.93;;;3.15;;
66886;SDS011;67239;51.680;5.976;2023-06-10T12:58:40;5.60;;;3.17;;
66886;SDS011;67239;51.680;5.976;2023-06-10T13:01:25;3.83;;;3.20;;
66886;SDS011;67239;51.680;5.976;2023-06-10T13:04:11;5.53;;;3.17;;
66886;SDS011;67239;51.680;5.976;2023-06-10T13:06:57;3.85;;;3.35;;
66886;SDS011;67239;51.680;5.976;2023-06-10T13:09:44;3.75;;;3.00;;
66886;SDS011;67239;51.680;5.976;2023-06-10T13:12:29;5.57;;;3.33;;
66886;SDS011;67239;51.680;5.976;2023-06-10T13:15:32;5.70;;;3.15;;
66886;SDS011;67239;51.680;5.976;2023-06-10T13:18:26;5.32;;;3.03;;
66886;SDS011;67239;51.680;5.976;2023-06-10T13:21:11;5.28;;;3.08;;
66886;SDS011;67239;51.680;5.976;2023-06-10T13:23:57;5.07;;;3.45;;
66886;SDS011;67239;51.680;5.976;2023-06-10T13:26:43;4.68;;;3.10;;
66886;SDS011;67239;51.680;5.976;2023-06-10T13:29:28;3.85;;;3.45;;
66886;SDS011;67239;51.680;5.976;2023-06-10T13:32:15;5.07;;;2.85;;
66886;SDS011;67239;51.680;5.976;2023-06-10T13:35:01;4.28;;;3.03;;
66886;SDS011;67239;51.680;5.976;2023-06-10T13:37:49;5.97;;;3.63;;
66886;SDS011;67239;51.680;5.976;2023-06-10T13:40:37;4.65;;;3.22;;
66886;SDS011;67239;51.680;5.976;2023-06-10T13:43:23;5.53;;;3.60;;
66886;SDS011;67239;51.680;5.976;2023-06-10T13:46:08;6.97;;;3.42;;
66886;SDS011;67239;51.680;5.976;2023-06-10T13:48:57;4.35;;;3.40;;
66886;SDS011;67239;51.680;5.976;2023-06-10T13:51:44;3.75;;;2.92;;
66886;SDS011;67239;51.680;5.976;2023-06-10T13:54:30;5.45;;;3.05;;
66886;SDS011;67239;51.680;5.976;2023-06-10T13:57:15;4.00;;;3.30;;
66886;SDS011;67239;51.680;5.976;2023-06-10T14:00:03;5.25;;;3.20;;
66886;SDS011;67239;51.680;5.976;2023-06-10T14:02:50;4.38;;;3.20;;
66886;SDS011;67239;51.680;5.976;2023-06-10T14:05:36;3.33;;;3.00;;
66886;SDS011;67239;51.680;5.976;2023-06-10T14:08:21;5.55;;;3.20;;
66886;SDS011;67239;51.680;5.976;2023-06-10T14:11:07;3.90;;;3.30;;
66886;SDS011;67239;51.680;5.976;2023-06-10T14:13:53;4.75;;;3.22;;
66886;SDS011;67239;51.680;5.976;2023-06-10T14:16:41;5.03;;;3.17;;
66886;SDS011;67239;51.680;5.976;2023-06-10T14:19:27;3.33;;;2.90;;
66886;SDS011;67239;51.680;5.976;2023-06-10T14:22:13;3.60;;;3.30;;
66886;SDS011;67239;51.680;5.976;2023-06-10T14:24:58;5.50;;;3.15;;
66886;SDS011;67239;51.680;5.976;2023-06-10T14:27:45;6.57;;;3.55;;
66886;SDS011;67239;51.680;5.976;2023-06-10T14:30:32;5.40;;;3.38;;
66886;SDS011;67239;51.680;5.976;2023-06-10T14:33:30;8.38;;;3.55;;
66886;SDS011;67239;51.680;5.976;2023-06-10T14:36:16;3.42;;;3.10;;
66886;SDS011;67239;51.680;5.976;2023-06-10T14:39:02;5.20;;;3.22;;
66886;SDS011;67239;51.680;5.976;2023-06-10T14:41:49;6.57;;;3.03;;
66886;SDS011;67239;51.680;5.976;2023-06-10T14:44:34;3.97;;;3.13;;
66886;SDS011;67239;51.680;5.976;2023-06-10T14:47:20;8.50;;;3.65;;
66886;SDS011;67239;51.680;5.976;2023-06-10T14:50:05;4.18;;;3.42;;
66886;SDS011;67239;51.680;5.976;2023-06-10T14:52:51;3.70;;;3.30;;
66886;SDS011;67239;51.680;5.976;2023-06-10T14:55:37;3.92;;;3.20;;
66886;SDS011;67239;51.680;5.976;2023-06-10T14:58:22;6.07;;;3.17;;
66886;SDS011;67239;51.680;5.976;2023-06-10T15:01:07;4.85;;;2.90;;
66886;SDS011;67239;51.680;5.976;2023-06-10T15:03:53;5.10;;;3.88;;
66886;SDS011;67239;51.680;5.976;2023-06-10T15:06:38;6.63;;;3.42;;
66886;SDS011;67239;51.680;5.976;2023-06-10T15:09:24;5.85;;;3.50;;
66886;SDS011;67239;51.680;5.976;2023-06-10T15:12:10;4.20;;;3.20;;
66886;SDS011;67239;51.680;5.976;2023-06-10T15:14:55;6.50;;;3.30;;
66886;SDS011;67239;51.680;5.976;2023-06-10T15:17:43;4.70;;;2.97;;
66886;SDS011;67239;51.680;5.976;2023-06-10T15:20:30;4.78;;;3.33;;
66886;SDS011;67239;51.680;5.976;2023-06-10T15:23:19;5.75;;;3.42;;
66886;SDS011;67239;51.680;5.976;2023-06-10T15:26:05;5.95;;;3.28;;
66886;SDS011;67239;51.680;5.976;2023-06-10T15:28:54;5.85;;;3.40;;
66886;SDS011;67239;51.680;5.976;2023-06-10T15:31:39;6.97;;;3.25;;
66886;SDS011;67239;51.680;5.976;2023-06-10T15:34:24;5.70;;;3.33;;
66886;SDS011;67239;51.680;5.976;2023-06-10T15:37:10;4.18;;;3.58;;
66886;SDS011;67239;51.680;5.976;2023-06-10T15:39:55;5.25;;;3.17;;
66886;SDS011;67239;51.680;5.976;2023-06-10T15:42:46;4.22;;;3.00;;
66886;SDS011;67239;51.680;5.976;2023-06-10T15:45:31;5.05;;;3.50;;
66886;SDS011;67239;51.680;5.976;2023-06-10T15:48:20;4.43;;;3.10;;
66886;SDS011;67239;51.680;5.976;2023-06-10T15:51:07;5.97;;;3.35;;
66886;SDS011;67239;51.680;5.976;2023-06-10T15:53:54;4.20;;;3.10;;
66886;SDS011;67239;51.680;5.976;2023-06-10T15:56:40;6.30;;;3.05;;
66886;SDS011;67239;51.680;5.976;2023-06-10T15:59:26;4.35;;;3.10;;
66886;SDS011;67239;51.680;5.976;2023-06-10T16:02:11;4.68;;;3.30;;
66886;SDS011;67239;51.680;5.976;2023-06-10T16:04:57;4.30;;;2.95;;
66886;SDS011;67239;51.680;5.976;2023-06-10T16:07:45;4.68;;;3.00;;
66886;SDS011;67239;51.680;5.976;2023-06-10T16:10:33;3.88;;;3.10;;
66886;SDS011;67239;51.680;5.976;2023-06-10T16:13:18;5.97;;;3.10;;
66886;SDS011;67239;51.680;5.976;2023-06-10T16:16:08;4.15;;;2.95;;
66886;SDS011;67239;51.680;5.976;2023-06-10T16:18:54;5.32;;;3.28;;
66886;SDS011;67239;51.680;5.976;2023-06-10T16:21:42;3.85;;;3.15;;
66886;SDS011;67239;51.680;5.976;2023-06-10T16:24:29;4.95;;;3.13;;
66886;SDS011;67239;51.680;5.976;2023-06-10T16:27:15;4.50;;;3.17;;
66886;SDS011;67239;51.680;5.976;2023-06-10T16:30:00;3.17;;;2.67;;
66886;SDS011;67239;51.680;5.976;2023-06-10T16:32:46;4.20;;;2.88;;
66886;SDS011;67239;51.680;5.976;2023-06-10T16:35:32;5.93;;;3.30;;
66886;SDS011;67239;51.680;5.976;2023-06-10T16:38:17;5.25;;;3.35;;
66886;SDS011;67239;51.680;5.976;2023-06-10T16:41:03;3.80;;;2.78;;
66886;SDS011;67239;51.680;5.976;2023-06-10T16:43:48;4.78;;;3.35;;
66886;SDS011;67239;51.680;5.976;2023-06-10T16:46:34;7.28;;;3.00;;
66886;SDS011;67239;51.680;5.976;2023-06-10T16:49:20;5.95;;;3.25;;
66886;SDS011;67239;51.680;5.976;2023-06-10T16:52:05;4.30;;;3.40;;
66886;SDS011;67239;51.680;5.976;2023-06-10T16:54:51;4.90;;;3.03;;
66886;SDS011;67239;51.680;5.976;2023-06-10T16:57:36;6.90;;;3.20;;
66886;SDS011;67239;51.680;5.976;2023-06-10T17:00:22;4.00;;;3.10;;
66886;SDS011;67239;51.680;5.976;2023-06-10T17:03:07;6.00;;;3.28;;